Airways and Terminal Forecast

Significant Meteorological Information

WSPH31 RPLL 271220 
RPHI SIGMET B03 VALID 271220/271620 RPLL-
RPHI MANILA FIR EMBD TS OBS WI N0813 E12225 - N0936 E12615 - N0809 E12644 - N0659 E12332 - N0813 E12225 TOP FL530 MOV W 5KT INTSF=

 

 

Terminal Aerodrome Forecast

TAF RPLL

271100Z 2712/2818 24006KT 9999 FEW025 BKN100 TX33/2806Z TN27/2721Z TEMPO 2712/2718 35005KT -SHRA FEW023CB SCT025 BKN090 TEMPO 2718/2724 11003KT FEW022CB SCT023 BKN090=

TAF RPVM

271100Z 2712/2818 22005KT 9999 FEW020 BKN300 TEMPO 2712/2718 28006KT -SHRA FEW018CB BKN100 TEMPO 2718/2724 26004KT FEW018CB BKN250=

TAF RPLC

271100Z 2712/2818 09006KT 9999 FEW020 BKN300 TX35/2806Z TN24/2722Z TEMPO 2712/2718 18008KT 6000 TS -SHRA FEW015CB SCT020 BKN100=

TAF RPLB

271100Z 2712/2812 07004KT 9999 FEW020 BKN300 TX34/2806Z TN24/2721Z TEMPO 2712/2718 04010KT 9000 -TSRA FEW017CB SCT018 BKN080=

TAF RPLI

271100Z 2712/2812 01008KT 9999 FEW018 TEMPO 2712/2718 08005KT VCSH FEW017CB FEW018 SCT100 TEMPO 2803/2809 35010KT -SHRA FEW017CB SCT018=

TAF RPVP

271100Z 2712/2812 15005KT 9999 FEW019 BKN080 TEMPO 2712/2718 30003KT -SHRA FEW017CB SCT019 TEMPO 2806/2812 VRB03KT -SHRA FEW017CB OVC080=

TAF RPVD

271100Z 2712/2812 06005KT  9999 FEW015 BKN070 BKN220 TEMPO 2712/2718 32005KT -SHRA FEW014CB SCT070 BKN220 TEMPO 2803/2809 10002KT 7000 -TSRA SCT014CB BKN070 OVC220=

TAF RPMR

271100Z 2712/2812 32006KT 9999 FEW018 SCT080 TEMPO 2712/2718 VCSH FEW016CB BKN080 TEMPO 2803/2809 18008KT -SHRA FEW018CB BKN080=

TAF RPMD

271100Z 2712/2812 16007KT 9999 FEW016 BKN090 BKN260 TEMPO 2712/2718 20005KT -SHRA SCT015CB BKN090 OVC260=

TAF RPMZ

271100Z 2712/2812 24006KT 9999 FEW017 SCT090 TEMPO 2712/2718 30003KT -SHRA FEW016CB SCT017 BKN300=

TAF RPVK

271100Z 2712/2812 28006KT 9999 SCT016 BKN070 BKN240 TEMPO 2712/2718 22005KT -SHRA SCT016 OVC070=

 

RPLL FORECAST TAKE-OFF CONDITION

TIME

(UTC)

WIND

(dddffKT)

TEMP

(°C)

QNH

(hPa)

TIME

(UTC)

WIND

(dddffKT)

TEMP

(°C)

QNH

(hPa)

1200

24006KT

29.5

1008.0

1600

33005KT

28.5

1010.0

1300

26005KT

29.5

1008.0

1700

35006KT

28.0

1009.0

1400

28003KT

29.5

1009.0

1800

34006KT

28.0

1008.0

1500

31004KT

29.0

1009.0

1900

31002KT

28.0

1008.0

 

ISSUED AT NAIA AMSS-WD/PAGASA-DOST FOR 1100UTC 27 SEPTEMBER 2021

PREPARED BY:   LLAB                                                                                            

CHECKED BY:     CHH